createdAt,value
2023-05-19T00:00:34.650Z,100640.00
2023-05-19T00:03:03.395Z,100647.84
2023-05-19T00:05:31.922Z,100649.59
2023-05-19T00:08:01.862Z,100651.59
2023-05-19T00:10:32.005Z,100654.41
2023-05-19T00:13:00.927Z,100652.31
2023-05-19T00:15:29.320Z,100650.75
2023-05-19T00:17:57.295Z,100650.03
2023-05-19T00:20:25.254Z,100645.25
2023-05-19T00:22:53.232Z,100656.19
2023-05-19T00:25:22.778Z,100648.19
2023-05-19T00:27:50.806Z,100647.78
2023-05-19T00:30:18.913Z,100656.97
2023-05-19T00:32:46.923Z,100664.69
2023-05-19T00:35:15.901Z,100652.28
2023-05-19T00:37:43.886Z,100665.41
2023-05-19T00:40:12.255Z,100664.88
2023-05-19T00:42:42.473Z,100659.16
2023-05-19T00:45:10.960Z,100675.31
2023-05-19T00:47:39.014Z,100675.53
2023-05-19T00:50:07.719Z,100674.47
2023-05-19T00:52:35.876Z,100681.97
2023-05-19T00:55:04.069Z,100687.09
2023-05-19T00:57:32.073Z,100688.88
2023-05-19T01:00:02.076Z,100684.69
2023-05-19T01:02:30.828Z,100681.13
2023-05-19T01:04:59.565Z,100683.84
2023-05-19T01:07:27.535Z,100687.09
2023-05-19T01:09:55.669Z,100681.22
2023-05-19T01:12:23.766Z,100677.09
2023-05-19T01:14:52.008Z,100674.13
2023-05-19T01:17:28.425Z,100668.91
2023-05-19T01:20:06.722Z,100677.19
2023-05-19T01:22:55.020Z,100679.66
2023-05-19T01:25:58.261Z,100674.56
2023-05-19T01:28:59.724Z,100669.03
2023-05-19T01:31:29.573Z,100673.41
2023-05-19T01:33:59.310Z,100675.28
2023-05-19T01:36:29.001Z,100680.50
2023-05-19T01:38:59.367Z,100670.38
2023-05-19T01:41:29.562Z,100666.81
2023-05-19T01:43:58.901Z,100665.25
2023-05-19T01:46:28.380Z,100669.84
2023-05-19T01:48:57.256Z,100676.09
2023-05-19T01:51:25.215Z,100669.06
2023-05-19T01:53:53.202Z,100668.56
2023-05-19T01:56:31.380Z,100671.31
2023-05-19T01:59:12.262Z,100671.69
2023-05-19T02:01:49.771Z,100667.50
2023-05-19T02:04:26.184Z,100672.94
2023-05-19T02:06:58.830Z,100669.16
2023-05-19T02:09:36.057Z,100670.00
2023-05-19T02:12:08.632Z,100675.03
2023-05-19T02:14:40.493Z,100682.09
2023-05-19T02:17:10.936Z,100692.44
2023-05-19T02:19:40.314Z,100678.97
2023-05-19T02:22:08.357Z,100690.22
2023-05-19T02:24:36.781Z,100695.63
2023-05-19T02:27:05.018Z,100692.97
2023-05-19T02:29:33.002Z,100695.28
2023-05-19T02:32:02.299Z,100702.50
2023-05-19T02:34:31.653Z,100706.69
2023-05-19T02:36:59.622Z,100713.78
2023-05-19T02:39:29.263Z,100707.16
2023-05-19T02:41:57.221Z,100716.47
2023-05-19T02:44:25.236Z,100721.66
2023-05-19T02:46:53.302Z,100719.34
2023-05-19T02:49:21.339Z,100717.25
2023-05-19T02:51:50.698Z,100729.72
2023-05-19T02:54:18.686Z,100723.84
2023-05-19T02:56:46.994Z,100736.78
2023-05-19T02:59:14.975Z,100729.53
2023-05-19T03:01:42.982Z,100737.44
2023-05-19T03:04:11.326Z,100716.53
2023-05-19T03:06:39.483Z,100734.53
2023-05-19T03:09:08.904Z,100736.31
2023-05-19T03:11:36.844Z,100716.06
2023-05-19T03:14:04.805Z,100744.78
2023-05-19T03:16:34.096Z,100754.13
2023-05-19T03:19:02.226Z,100746.13
2023-05-19T03:21:32.221Z,100754.78
2023-05-19T03:24:01.555Z,100752.94
2023-05-19T03:26:30.935Z,100763.78
2023-05-19T03:28:58.985Z,100766.19
2023-05-19T03:31:27.363Z,100767.78
2023-05-19T03:33:55.311Z,100772.75
2023-05-19T03:36:23.287Z,100773.59
2023-05-19T03:38:51.260Z,100771.25
2023-05-19T03:41:19.176Z,100774.31
2023-05-19T03:43:48.483Z,100776.22
2023-05-19T03:46:16.434Z,100779.16
2023-05-19T03:48:44.476Z,100780.63
2023-05-19T03:51:12.403Z,100780.84
2023-05-19T03:53:41.268Z,100784.44
2023-05-19T03:56:13.843Z,100793.31
2023-05-19T03:58:43.569Z,100794.25
2023-05-19T04:01:13.179Z,100792.47
2023-05-19T04:03:41.617Z,100790.19
2023-05-19T04:06:09.882Z,100792.09
2023-05-19T04:08:37.835Z,100795.22
2023-05-19T04:11:06.098Z,100799.25
2023-05-19T04:13:34.445Z,100796.06
2023-05-19T04:16:02.612Z,100802.72
2023-05-19T04:18:31.960Z,100802.22
2023-05-19T04:20:59.944Z,100808.50
2023-05-19T04:23:27.887Z,100804.56
2023-05-19T04:25:57.193Z,100802.13
2023-05-19T04:28:25.172Z,100795.28
2023-05-19T04:30:53.141Z,100792.59
2023-05-19T04:33:21.554Z,100792.16
2023-05-19T04:35:51.784Z,100798.94
2023-05-19T04:38:20.304Z,100799.84
2023-05-19T04:40:50.454Z,100797.78
2023-05-19T04:43:19.364Z,100810.31
2023-05-19T04:45:50.276Z,100800.81
2023-05-19T04:48:18.243Z,100811.00
2023-05-19T04:50:48.942Z,100801.56
2023-05-19T04:53:18.341Z,100812.88
2023-05-19T04:55:46.489Z,100819.00
2023-05-19T04:58:14.465Z,100809.50
2023-05-19T05:00:42.412Z,100822.25
2023-05-19T05:03:10.479Z,100824.38
2023-05-19T05:05:38.485Z,100825.75
2023-05-19T05:08:07.212Z,100821.56
2023-05-19T05:10:36.520Z,100827.47
2023-05-19T05:13:04.967Z,100830.97
2023-05-19T05:15:33.343Z,100833.38
2023-05-19T05:18:01.756Z,100835.31
2023-05-19T05:20:30.568Z,100835.00
2023-05-19T05:22:59.125Z,100828.25
2023-05-19T05:25:27.686Z,100837.06
2023-05-19T05:27:58.987Z,100845.44
2023-05-19T05:30:26.940Z,100846.03
2023-05-19T05:32:55.003Z,100844.69
2023-05-19T05:35:25.530Z,100854.13
2023-05-19T05:37:53.485Z,100849.94
2023-05-19T05:40:21.611Z,100852.69
2023-05-19T05:42:49.649Z,100844.84
2023-05-19T05:45:19.056Z,100848.31
2023-05-19T05:47:47.568Z,100854.09
2023-05-19T05:50:16.433Z,100843.59
2023-05-19T05:52:47.998Z,100857.59
2023-05-19T05:55:17.499Z,100856.75
2023-05-19T05:57:45.711Z,100855.50
2023-05-19T06:00:16.531Z,100871.72
2023-05-19T06:02:47.646Z,100863.78
2023-05-19T06:05:16.081Z,100854.38
2023-05-19T06:07:44.494Z,100869.31
2023-05-19T06:10:12.687Z,100868.47
2023-05-19T06:12:42.639Z,100870.91
2023-05-19T06:15:12.226Z,100874.97
2023-05-19T06:17:40.176Z,100874.81
2023-05-19T06:20:11.147Z,100885.00
2023-05-19T06:22:39.113Z,100878.53
2023-05-19T06:25:09.000Z,100882.13
2023-05-19T06:27:37.104Z,100884.13
2023-05-19T06:30:06.461Z,100894.22
2023-05-19T06:32:34.481Z,100893.03
2023-05-19T06:35:02.668Z,100895.06
2023-05-19T06:37:31.997Z,100882.84
2023-05-19T06:39:59.962Z,100890.53
2023-05-19T06:42:27.983Z,100903.41
2023-05-19T06:44:56.822Z,100901.44
2023-05-19T06:47:24.834Z,100901.25
2023-05-19T06:49:55.490Z,100903.03
2023-05-19T06:52:23.846Z,100908.34
2023-05-19T06:54:53.421Z,100902.03
2023-05-19T06:57:21.691Z,100864.22
2023-05-19T06:59:49.708Z,100904.66
2023-05-19T07:02:17.711Z,100899.38
2023-05-19T07:04:45.734Z,100905.25
2023-05-19T07:07:13.673Z,100907.09
2023-05-19T07:09:41.683Z,100900.38
2023-05-19T07:12:11.010Z,100899.81
2023-05-19T07:14:39.042Z,100893.47
2023-05-19T07:17:06.989Z,100901.94
2023-05-19T07:19:34.964Z,100893.28
2023-05-19T07:22:02.931Z,100890.88
2023-05-19T07:24:31.633Z,100901.25
2023-05-19T07:26:59.617Z,100905.03
2023-05-19T07:29:29.070Z,100895.44
2023-05-19T07:31:58.214Z,100895.84
2023-05-19T07:34:26.420Z,100887.84
2023-05-19T07:36:54.387Z,100906.78
2023-05-19T07:39:22.381Z,100902.78
2023-05-19T07:41:54.291Z,100900.03
2023-05-19T07:44:22.297Z,100898.59
2023-05-19T07:46:51.688Z,100903.16
2023-05-19T07:49:19.639Z,100895.53
2023-05-19T07:51:47.592Z,100895.66
2023-05-19T07:54:15.556Z,100891.63
2023-05-19T07:56:43.548Z,100888.47
2023-05-19T07:59:11.939Z,100887.16
2023-05-19T08:01:39.921Z,100896.41
2023-05-19T08:04:11.169Z,100902.69
2023-05-19T08:06:42.813Z,100891.19
2023-05-19T08:09:10.866Z,100899.25
2023-05-19T08:11:39.043Z,100894.22
2023-05-19T08:14:07.034Z,100897.78
2023-05-19T08:16:35.001Z,100893.75
2023-05-19T08:19:05.428Z,100892.81
2023-05-19T08:21:35.606Z,100877.50
2023-05-19T08:24:03.658Z,100890.06
2023-05-19T08:26:31.587Z,100888.31
2023-05-19T08:28:59.517Z,100890.66
2023-05-19T08:31:27.561Z,100893.78
2023-05-19T08:33:55.611Z,100889.59
2023-05-19T08:36:23.631Z,100887.72
2023-05-19T08:38:52.975Z,100883.75
2023-05-19T08:41:21.646Z,100867.88
2023-05-19T08:43:50.099Z,100871.66
2023-05-19T08:46:18.894Z,100881.06
2023-05-19T08:48:49.654Z,100882.19
2023-05-19T08:51:25.553Z,100871.66
2023-05-19T08:53:59.748Z,100885.09
2023-05-19T08:56:28.360Z,100872.16
2023-05-19T08:59:00.418Z,100876.63
2023-05-19T09:01:30.415Z,100873.94
2023-05-19T09:03:58.887Z,100870.38
2023-05-19T09:06:27.849Z,100871.56
2023-05-19T09:08:57.285Z,100871.88
2023-05-19T09:11:25.286Z,100874.19
2023-05-19T09:13:54.192Z,100874.38
2023-05-19T09:16:22.450Z,100865.97
2023-05-19T09:18:57.198Z,100871.38
2023-05-19T09:21:31.292Z,100872.31
2023-05-19T09:24:06.173Z,100878.25
2023-05-19T09:26:38.624Z,100866.38
2023-05-19T09:29:18.545Z,100867.38
2023-05-19T09:31:51.628Z,100853.44
2023-05-19T09:34:20.259Z,100868.75
2023-05-19T09:36:49.591Z,100861.59
2023-05-19T09:39:20.765Z,100868.84
2023-05-19T09:41:52.087Z,100861.47
2023-05-19T09:44:24.222Z,100857.22
2023-05-19T09:46:53.232Z,100856.13
2023-05-19T09:49:22.804Z,100852.28
2023-05-19T09:51:52.375Z,100850.81
2023-05-19T09:54:23.763Z,100845.50
2023-05-19T09:56:59.062Z,100853.19
2023-05-19T09:59:29.037Z,100847.50
2023-05-19T10:02:00.779Z,100834.22
2023-05-19T10:04:30.400Z,100850.84
2023-05-19T10:07:00.506Z,100850.97
2023-05-19T10:09:30.781Z,100845.56
2023-05-19T10:12:00.319Z,100845.22
2023-05-19T10:14:29.596Z,100833.41
2023-05-19T10:16:58.894Z,100837.59
2023-05-19T10:19:28.944Z,100840.34
2023-05-19T10:21:57.544Z,100837.53
2023-05-19T10:24:25.544Z,100831.28
2023-05-19T10:26:59.644Z,100826.03
2023-05-19T10:29:32.997Z,100828.34
2023-05-19T10:32:04.349Z,100829.72
2023-05-19T10:35:10.617Z,100820.56
2023-05-19T10:37:46.095Z,100831.72
2023-05-19T10:40:21.836Z,100820.59
2023-05-19T10:43:04.151Z,100816.59
2023-05-19T10:45:37.821Z,100813.66
2023-05-19T10:48:06.084Z,100822.00
2023-05-19T10:50:37.996Z,100802.91
2023-05-19T10:53:06.007Z,100799.47
2023-05-19T10:55:48.706Z,100801.19
2023-05-19T10:58:38.114Z,100798.44
2023-05-19T11:01:09.985Z,100807.69
2023-05-19T11:03:49.199Z,100811.75
2023-05-19T11:06:28.398Z,100788.91
2023-05-19T11:09:00.710Z,100796.25
2023-05-19T11:11:45.161Z,100794.25
2023-05-19T11:14:17.207Z,100792.38
2023-05-19T11:16:48.333Z,100788.91
2023-05-19T11:19:21.360Z,100781.19
2023-05-19T11:21:50.614Z,100786.25
2023-05-19T11:24:44.771Z,100783.34
2023-05-19T11:27:23.977Z,100782.03
2023-05-19T11:29:53.977Z,100774.06
2023-05-19T11:32:23.138Z,100781.84
2023-05-19T11:34:51.272Z,100780.34
2023-05-19T11:37:19.243Z,100776.59
2023-05-19T11:39:48.029Z,100772.22
2023-05-19T11:42:16.033Z,100769.44
2023-05-19T11:44:46.226Z,100769.56
2023-05-19T11:47:16.970Z,100763.34
2023-05-19T11:49:46.035Z,100766.53
2023-05-19T11:52:14.363Z,100754.75
2023-05-19T11:54:43.052Z,100758.34
2023-05-19T11:57:11.674Z,100742.28
2023-05-19T11:59:43.928Z,100743.16
2023-05-19T12:02:20.089Z,100740.59
2023-05-19T12:04:49.281Z,100731.06
2023-05-19T12:07:18.781Z,100691.34
2023-05-19T12:09:47.462Z,100720.72
2023-05-19T12:12:17.104Z,100732.44
2023-05-19T12:14:45.677Z,100717.97
2023-05-19T12:17:14.480Z,100708.56
2023-05-19T12:19:44.962Z,100706.34
2023-05-19T12:22:13.889Z,100715.81
2023-05-19T12:24:43.121Z,100722.31
2023-05-19T12:27:19.466Z,100708.31
2023-05-19T12:29:51.417Z,100712.50
2023-05-19T12:32:19.782Z,100702.00
2023-05-19T12:34:49.302Z,100700.47
2023-05-19T12:37:17.598Z,100703.88
2023-05-19T12:39:45.658Z,100713.53
2023-05-19T12:42:13.815Z,100707.16
2023-05-19T12:44:46.864Z,100710.97
2023-05-19T12:47:15.800Z,100698.50
2023-05-19T12:49:57.026Z,100703.69
2023-05-19T12:52:25.249Z,100702.50
2023-05-19T12:55:00.527Z,100699.56
2023-05-19T12:57:31.625Z,100689.28
2023-05-19T13:00:05.139Z,100684.53
2023-05-19T13:02:35.150Z,100695.38
2023-05-19T13:05:04.966Z,100699.00
2023-05-19T13:07:32.935Z,100701.16
2023-05-19T13:10:00.884Z,100704.31
2023-05-19T13:12:29.185Z,100706.00
2023-05-19T13:14:57.156Z,100708.03
2023-05-19T13:17:25.179Z,100713.81
2023-05-19T13:19:53.420Z,100712.66
2023-05-19T13:22:22.903Z,100713.59
2023-05-19T13:24:51.134Z,100709.31
2023-05-19T13:27:19.108Z,100715.53
2023-05-19T13:29:47.098Z,100720.31
2023-05-19T13:32:15.097Z,100698.09
2023-05-19T13:34:43.104Z,100713.44
2023-05-19T13:37:11.679Z,100710.03
2023-05-19T13:39:41.307Z,100718.94
2023-05-19T13:42:09.456Z,100720.94
2023-05-19T13:44:37.419Z,100702.38
2023-05-19T13:47:05.821Z,100719.09
2023-05-19T13:49:33.828Z,100723.50
2023-05-19T13:52:01.783Z,100733.28
2023-05-19T13:54:29.801Z,100731.41
2023-05-19T13:56:59.489Z,100731.19
2023-05-19T13:59:28.440Z,100719.84
2023-05-19T14:01:56.570Z,100751.81
2023-05-19T14:04:24.918Z,100771.84
2023-05-19T14:06:53.018Z,100775.72
2023-05-19T14:09:21.005Z,100756.00
2023-05-19T14:11:49.155Z,100776.88
2023-05-19T14:14:18.662Z,100809.00
2023-05-19T14:16:46.673Z,100824.06
2023-05-19T14:19:14.735Z,100816.25
2023-05-19T14:21:42.821Z,100821.38
2023-05-19T14:24:10.815Z,100838.34
2023-05-19T14:26:38.783Z,100846.47
2023-05-19T14:29:06.815Z,100851.56
2023-05-19T14:31:36.202Z,100851.69
2023-05-19T14:34:05.226Z,100853.97
2023-05-19T14:36:34.016Z,100865.91
2023-05-19T14:39:02.053Z,100857.47
2023-05-19T14:41:30.051Z,100846.59
2023-05-19T14:43:58.008Z,100829.75
2023-05-19T14:46:26.021Z,100839.94
2023-05-19T14:48:55.453Z,100820.47
2023-05-19T14:51:23.458Z,100819.25
2023-05-19T14:53:51.595Z,100813.78
2023-05-19T14:56:19.581Z,100829.22
2023-05-19T14:58:47.534Z,100829.81
2023-05-19T15:01:15.579Z,100827.31
2023-05-19T15:03:43.678Z,100823.31
2023-05-19T15:06:13.103Z,100823.06
2023-05-19T15:21:21.479Z,100858.53
2023-05-19T15:23:49.468Z,100876.28
2023-05-19T15:26:17.540Z,100879.25
2023-05-19T15:28:45.486Z,100873.56
2023-05-19T15:31:13.525Z,100888.72
2023-05-19T15:33:41.544Z,100879.31
2023-05-19T15:36:11.270Z,100899.00
2023-05-19T15:38:40.608Z,100907.88
2023-05-19T15:41:09.503Z,100883.19
2023-05-19T15:43:37.507Z,100894.56
2023-05-19T15:46:06.040Z,100894.09
2023-05-19T15:48:34.354Z,100896.66
2023-05-19T15:51:02.385Z,100897.56
2023-05-19T15:53:30.411Z,100896.06
2023-05-19T15:55:59.784Z,100900.38
2023-05-19T15:58:27.809Z,100903.63
2023-05-19T16:00:55.917Z,100893.22
2023-05-19T16:03:23.974Z,100898.69
2023-05-19T16:05:51.962Z,100889.31
2023-05-19T16:08:19.907Z,100881.47
2023-05-19T16:10:47.879Z,100877.44
2023-05-19T16:13:17.281Z,100874.47
2023-05-19T16:15:45.262Z,100880.50
2023-05-19T16:18:13.387Z,100874.84
2023-05-19T16:20:41.474Z,100864.53
2023-05-19T16:23:09.438Z,100856.63
2023-05-19T16:25:37.388Z,100855.47
2023-05-19T16:28:05.726Z,100865.78
2023-05-19T16:30:35.386Z,100868.97
2023-05-19T16:33:03.658Z,100871.22
2023-05-19T16:35:32.252Z,100862.53
2023-05-19T16:38:00.392Z,100867.31
2023-05-19T16:40:30.835Z,100866.28
2023-05-19T16:42:59.182Z,100848.91
2023-05-19T16:45:27.424Z,100853.94
2023-05-19T16:47:56.886Z,100865.31
2023-05-19T16:50:24.929Z,100864.13
2023-05-19T16:52:52.949Z,100867.59
2023-05-19T16:55:20.962Z,100877.59
2023-05-19T16:57:48.955Z,100877.78
2023-05-19T17:00:17.475Z,100897.13
2023-05-19T17:02:45.556Z,100908.25
2023-05-19T17:05:16.865Z,100905.13
2023-05-19T17:07:44.815Z,100914.69
2023-05-19T17:10:13.946Z,100918.78
2023-05-19T17:12:41.908Z,100914.63
2023-05-19T17:15:11.036Z,100918.88
2023-05-19T17:17:39.020Z,100912.78
2023-05-19T17:20:08.421Z,100916.06
2023-05-19T17:22:37.812Z,100907.84
2023-05-19T17:25:07.148Z,100912.81
2023-05-19T17:27:35.137Z,100919.75
2023-05-19T17:30:03.519Z,100916.00
2023-05-19T17:32:36.016Z,100918.38
2023-05-19T17:35:06.671Z,100911.69
2023-05-19T17:37:34.780Z,100907.69
2023-05-19T17:40:04.460Z,100902.41
2023-05-19T17:42:32.440Z,100896.16
2023-05-19T17:45:00.419Z,100897.13
2023-05-19T17:47:28.409Z,100905.44
2023-05-19T17:49:56.490Z,100908.38
2023-05-19T17:52:25.803Z,100904.75
2023-05-19T17:54:54.310Z,100906.19
2023-05-19T17:57:26.884Z,100904.78
2023-05-19T17:59:55.393Z,100910.22
2023-05-19T18:02:23.810Z,100909.81
2023-05-19T18:04:52.358Z,100902.88
2023-05-19T18:07:20.939Z,100914.81
2023-05-19T18:09:52.075Z,100928.97
2023-05-19T18:12:20.054Z,100935.06
2023-05-19T18:14:50.222Z,100930.22
2023-05-19T18:17:18.203Z,100932.00
2023-05-19T18:19:46.362Z,100952.09
2023-05-19T18:22:15.003Z,100943.78
2023-05-19T18:24:42.981Z,100957.09
2023-05-19T18:27:10.960Z,100954.16
2023-05-19T18:29:39.357Z,100957.22
2023-05-19T18:32:09.340Z,100958.34
2023-05-19T18:34:37.349Z,100960.13
2023-05-19T18:37:05.567Z,100959.72
2023-05-19T18:39:33.537Z,100967.50
2023-05-19T18:42:01.735Z,100969.16
2023-05-19T18:44:29.782Z,100972.78
2023-05-19T18:46:57.726Z,100961.25
2023-05-19T18:49:27.088Z,100966.66
2023-05-19T18:51:55.218Z,100965.53
2023-05-19T18:54:23.165Z,100965.28
2023-05-19T18:56:51.138Z,100963.22
2023-05-19T18:59:19.145Z,100966.09
2023-05-19T19:01:47.130Z,100969.44
2023-05-19T19:04:16.812Z,100964.72
2023-05-19T19:06:46.334Z,100965.28
2023-05-19T19:09:14.504Z,100962.78
2023-05-19T19:11:42.633Z,100969.97
2023-05-19T19:14:10.951Z,100974.41
2023-05-19T19:16:39.005Z,100976.63
2023-05-19T19:19:07.266Z,100984.94
2023-05-19T19:21:35.350Z,100990.47
2023-05-19T19:24:05.254Z,100986.72
2023-05-19T19:26:33.297Z,100996.63
2023-05-19T19:29:01.277Z,100992.03
2023-05-19T19:31:29.796Z,100992.81
2023-05-19T19:34:00.920Z,100979.50
2023-05-19T19:36:28.884Z,100993.41
2023-05-19T19:38:56.888Z,100989.06
2023-05-19T19:41:26.584Z,100995.97
2023-05-19T19:43:54.536Z,100994.50
2023-05-19T19:46:22.569Z,100990.72
2023-05-19T19:48:51.186Z,100992.13
2023-05-19T19:51:19.271Z,100994.31
2023-05-19T19:53:47.234Z,100991.25
2023-05-19T19:56:15.302Z,100998.59
2023-05-19T19:58:44.684Z,100985.84
2023-05-19T20:01:12.794Z,101005.81
2023-05-19T20:03:41.002Z,100999.72
2023-05-19T20:06:09.099Z,100999.84
2023-05-19T20:08:37.060Z,100990.53
2023-05-19T20:11:05.032Z,100996.38
2023-05-19T20:13:33.158Z,100990.63
2023-05-19T20:16:02.613Z,100978.53
2023-05-19T20:18:30.844Z,100988.28
2023-05-19T20:20:58.814Z,101000.72
2023-05-19T20:23:26.782Z,101000.63
2023-05-19T20:26:10.359Z,100996.03
2023-05-19T20:28:39.531Z,100995.38
2023-05-19T20:31:09.078Z,100991.81
2023-05-19T20:33:37.051Z,100993.50
2023-05-19T20:36:06.410Z,100999.28
2023-05-19T20:38:34.375Z,100999.56
2023-05-19T20:41:03.928Z,100997.94
2023-05-19T20:43:33.055Z,101001.75
2023-05-19T20:46:01.492Z,101005.09
2023-05-19T20:48:30.936Z,101004.63
2023-05-19T20:50:58.906Z,101012.91
2023-05-19T20:53:26.869Z,101012.56
2023-05-19T20:55:54.815Z,101009.50
2023-05-19T20:58:22.817Z,101013.06
2023-05-19T21:00:56.994Z,101009.25
2023-05-19T21:03:26.882Z,100991.91
2023-05-19T21:05:56.625Z,100994.25
2023-05-19T21:08:25.138Z,101000.09
2023-05-19T21:10:53.159Z,101003.09
2023-05-19T21:13:21.303Z,101000.03
2023-05-19T21:15:49.282Z,101008.13
2023-05-19T21:18:17.226Z,101011.28
2023-05-19T21:20:45.274Z,101011.50
2023-05-19T21:23:14.582Z,101018.06
2023-05-19T21:25:44.542Z,101015.22
2023-05-19T21:28:13.272Z,101020.75
2023-05-19T21:30:41.707Z,101013.22
2023-05-19T21:33:09.778Z,101021.09
2023-05-19T21:35:38.065Z,101021.44
2023-05-19T21:38:15.568Z,101011.19
2023-05-19T21:40:52.998Z,101016.44
2023-05-19T21:43:21.918Z,101007.13
2023-05-19T21:45:49.938Z,101022.56
2023-05-19T21:48:18.020Z,101018.34
2023-05-19T21:50:46.031Z,101016.06
2023-05-19T21:53:14.004Z,101019.91
2023-05-19T21:55:42.035Z,101027.06
2023-05-19T21:58:11.376Z,101024.91
2023-05-19T22:00:39.449Z,101027.53
2023-05-19T22:03:07.864Z,101025.75
2023-05-19T22:05:38.162Z,101027.69
2023-05-19T22:08:06.366Z,101030.75
2023-05-19T22:10:34.988Z,101021.59
2023-05-19T22:13:03.216Z,101025.50
2023-05-19T22:15:32.550Z,101014.69
2023-05-19T22:18:00.620Z,101028.97
2023-05-19T22:20:28.773Z,101014.91
2023-05-19T22:22:57.454Z,101013.94
2023-05-19T22:25:25.413Z,101007.97
2023-05-19T22:27:53.349Z,101009.66
2023-05-19T22:30:21.800Z,101000.09
2023-05-19T22:32:51.393Z,101002.72
2023-05-19T22:35:19.975Z,101002.38
2023-05-19T22:37:47.935Z,101003.34
2023-05-19T22:40:15.949Z,100998.94
2023-05-19T22:42:43.888Z,100999.63
2023-05-19T22:45:12.388Z,100996.03
2023-05-19T22:47:40.624Z,100998.78
2023-05-19T22:50:12.251Z,100999.84
2023-05-19T22:52:40.237Z,100998.69
2023-05-19T22:55:09.165Z,101000.34
2023-05-19T22:57:37.127Z,100999.53
2023-05-19T23:00:05.865Z,101007.50
2023-05-19T23:02:33.898Z,101002.47
2023-05-19T23:05:02.093Z,101003.66
2023-05-19T23:07:31.496Z,101005.69
2023-05-19T23:09:59.506Z,101011.41
2023-05-19T23:12:27.526Z,101002.47
2023-05-19T23:14:55.467Z,101010.72
2023-05-19T23:17:23.410Z,100999.84
2023-05-19T23:19:51.609Z,100985.56
2023-05-19T23:22:19.553Z,101001.28
2023-05-19T23:24:48.959Z,100995.22
2023-05-19T23:27:16.918Z,100998.56
2023-05-19T23:29:48.515Z,100988.19
2023-05-19T23:32:16.719Z,100987.25
2023-05-19T23:34:44.649Z,100985.78
2023-05-19T23:37:12.688Z,100984.47
2023-05-19T23:39:40.949Z,100988.75
2023-05-19T23:42:10.305Z,100981.72
2023-05-19T23:44:38.338Z,100974.94
2023-05-19T23:47:06.967Z,100965.38
2023-05-19T23:49:35.154Z,100976.50
2023-05-19T23:52:03.094Z,100973.16
2023-05-19T23:54:31.396Z,100974.41
2023-05-19T23:56:59.539Z,100970.69
2023-05-19T23:59:28.867Z,100972.31
